createdAt,value
2023-02-24T00:00:31.921Z,5.97
2023-02-24T00:10:37.786Z,6.02
2023-02-24T00:20:40.258Z,5.72
2023-02-24T00:30:44.302Z,5.76
2023-02-24T00:40:48.053Z,5.71
2023-02-24T00:50:52.334Z,5.59
2023-02-24T01:00:55.707Z,5.61
2023-02-24T01:11:18.580Z,5.57
2023-02-24T01:21:22.026Z,5.45
2023-02-24T01:31:25.768Z,5.33
2023-02-24T01:41:28.644Z,5.26
2023-02-24T01:51:36.448Z,5.21
2023-02-24T02:01:41.242Z,5.13
2023-02-24T02:11:49.218Z,5.10
2023-02-24T02:22:13.919Z,5.05
2023-02-24T02:32:38.454Z,5.11
2023-02-24T02:42:47.514Z,5.11
2023-02-24T02:53:13.238Z,4.96
2023-02-24T03:03:19.523Z,4.97
2023-02-24T03:13:25.789Z,4.97
2023-02-24T03:23:32.049Z,4.95
2023-02-24T03:33:46.843Z,4.96
2023-02-24T03:43:51.345Z,4.90
2023-02-24T03:54:16.087Z,4.94
2023-02-24T04:04:37.868Z,4.99
2023-02-24T04:14:54.923Z,5.08
2023-02-24T04:25:01.343Z,5.16
2023-02-24T04:35:10.173Z,4.88
2023-02-24T04:45:24.585Z,4.95
2023-02-24T04:55:29.625Z,5.04
2023-02-24T05:05:35.569Z,5.00
2023-02-24T05:15:43.079Z,4.96
2023-02-24T05:25:46.491Z,4.90
2023-02-24T05:35:51.128Z,4.82
2023-02-24T05:45:53.704Z,4.86
2023-02-24T05:56:00.982Z,4.90
2023-02-24T06:06:08.810Z,5.13
2023-02-24T06:16:13.191Z,5.27
2023-02-24T06:26:19.814Z,5.37
2023-02-24T06:36:23.408Z,5.50
2023-02-24T06:46:26.169Z,5.50
2023-02-24T06:56:30.357Z,5.71
2023-02-24T07:06:38.257Z,5.96
2023-02-24T07:16:45.337Z,6.17
2023-02-24T07:26:51.889Z,6.61
2023-02-24T07:36:56.035Z,6.70
2023-02-24T07:46:59.467Z,6.62
2023-02-24T07:57:02.083Z,7.36
2023-02-24T08:07:04.835Z,8.51
2023-02-24T08:17:07.585Z,9.04
2023-02-24T08:27:10.272Z,10.20
2023-02-24T08:37:15.792Z,10.14
2023-02-24T08:47:21.241Z,9.75
2023-02-24T08:57:26.086Z,9.80
2023-02-24T09:07:35.634Z,10.08
2023-02-24T09:17:49.877Z,10.42
2023-02-24T09:28:19.935Z,10.66
2023-02-24T09:38:46.264Z,11.21
2023-02-24T09:49:05.322Z,12.30
2023-02-24T09:59:13.988Z,12.38
2023-02-24T10:09:34.561Z,13.63
2023-02-24T10:19:43.760Z,14.48
2023-02-24T10:30:43.669Z,15.99
2023-02-24T10:41:00.364Z,16.58
2023-02-24T10:51:10.935Z,17.17
2023-02-24T11:01:40.878Z,17.50
2023-02-24T11:12:02.474Z,17.49
2023-02-24T11:22:08.820Z,17.04
2023-02-24T11:32:20.468Z,17.10
2023-02-24T11:42:28.345Z,17.39
2023-02-24T11:52:35.332Z,18.41
2023-02-24T12:02:50.307Z,18.24
2023-02-24T12:13:07.676Z,19.85
2023-02-24T12:23:23.296Z,19.41
2023-02-24T12:33:43.881Z,17.43
2023-02-24T12:43:53.726Z,15.61
2023-02-24T12:54:13.065Z,15.66
2023-02-24T13:04:30.604Z,16.40
2023-02-24T13:14:36.899Z,17.90
2023-02-24T13:24:42.956Z,16.17
2023-02-24T13:34:45.594Z,16.55
2023-02-24T13:45:03.987Z,17.33
2023-02-24T13:55:14.143Z,16.67
2023-02-24T14:05:25.397Z,16.25
2023-02-24T14:15:28.479Z,15.72
2023-02-24T14:25:37.943Z,15.47
2023-02-24T14:35:46.871Z,15.27
2023-02-24T14:45:51.816Z,15.02
2023-02-24T14:55:57.769Z,14.69
2023-02-24T15:06:11.919Z,14.52
2023-02-24T15:16:17.751Z,14.37
2023-02-24T15:26:33.178Z,14.14
2023-02-24T15:36:36.653Z,13.83
2023-02-24T15:46:39.306Z,13.50
2023-02-24T15:56:43.321Z,13.20
2023-02-24T16:06:54.805Z,12.83
2023-02-24T16:16:58.624Z,12.39
2023-02-24T16:27:02.778Z,12.18
2023-02-24T16:37:17.089Z,11.91
2023-02-24T16:47:24.494Z,11.66
2023-02-24T16:57:27.038Z,11.81
2023-02-24T17:07:29.813Z,11.47
2023-02-24T17:17:33.127Z,10.97
2023-02-24T17:27:35.678Z,10.89
2023-02-24T17:37:38.295Z,10.59
2023-02-24T17:47:42.468Z,10.41
2023-02-24T17:57:46.209Z,10.20
2023-02-24T18:07:48.897Z,10.07
2023-02-24T18:17:51.645Z,9.88
2023-02-24T18:27:54.778Z,9.82
2023-02-24T18:37:57.652Z,9.64
2023-02-24T18:48:05.014Z,9.47
2023-02-24T18:58:08.025Z,9.38
2023-02-24T19:08:10.683Z,9.28
2023-02-24T19:18:14.085Z,9.16
2023-02-24T19:28:17.179Z,9.16
2023-02-24T19:38:22.119Z,9.09
2023-02-24T19:48:24.943Z,9.16
2023-02-24T19:58:28.020Z,8.94
2023-02-24T20:08:30.842Z,8.92
2023-02-24T20:18:34.756Z,8.84
2023-02-24T20:28:37.656Z,8.96
2023-02-24T20:38:40.598Z,8.96
2023-02-24T20:48:48.172Z,8.94
2023-02-24T20:59:00.093Z,8.96
2023-02-24T21:09:03.270Z,8.93
2023-02-24T21:19:06.751Z,8.80
2023-02-24T21:29:09.293Z,8.81
2023-02-24T21:39:15.068Z,8.89
2023-02-24T21:49:18.338Z,8.84
2023-02-24T21:59:21.358Z,9.27
2023-02-24T22:09:23.888Z,9.01
2023-02-24T22:19:26.604Z,8.70
2023-02-24T22:29:29.094Z,8.53
2023-02-24T22:39:33.701Z,8.32
2023-02-24T22:49:36.251Z,8.30
2023-02-24T22:59:38.853Z,8.21
2023-02-24T23:09:52.388Z,8.11
2023-02-24T23:19:54.897Z,8.08
2023-02-24T23:29:58.256Z,8.09
2023-02-24T23:40:02.780Z,8.05
2023-02-24T23:50:05.898Z,7.99
